KMSV/MSV METAR and TAF weather

Enter ICAO airport designator
Station Type Date Time Source
KMSV METAR 2020/07/05 15:56 UTC NOAA

KMSV 051556Z AUTO 31006G15KT 10SM CLR 28/14 A3004 RMK AO2 SLP163 T02830139


Station Type Date Time Source
KMSV Decoded METAR 2020/07/05 15:56 UTC NOAA

Monticello, Sullivan County International Airport, NY, United States (KMSV) 41-42N 074-48W
Jul 05, 2020 - 11:56 AM EDT / 2020.07.05 1556 UTC
Wind: from the NW (310 degrees) at 7 MPH (6 KT) gusting to 17 MPH (15 KT):0
Visibility: 10 mile(s):0
Sky conditions: clear
Temperature: 82.9 F (28.3 C)
Dew Point: 57.0 F (13.9 C)
Relative Humidity: 41%
Pressure (altimeter): 30.04 in. Hg (1017 hPa)
ob: KMSV 051556Z AUTO 31006G15KT 10SM CLR 28/14 A3004 RMK AO2 SLP163 T02830139
cycle: 16

Station Type Date Time Source
KMSV TAF UTC NOAA

Error!

Example: see airport list